createdAt,value
2019-02-27T00:00:59.757Z,5.33
2019-02-27T00:01:59.696Z,5.29
2019-02-27T00:02:59.622Z,5.27
2019-02-27T00:03:59.834Z,5.24
2019-02-27T00:04:59.485Z,5.14
2019-02-27T00:05:59.422Z,5.22
2019-02-27T00:06:59.355Z,5.16
2019-02-27T00:07:59.301Z,5.25
2019-02-27T00:09:00.503Z,5.24
2019-02-27T00:09:59.166Z,5.32
2019-02-27T00:10:59.090Z,5.29
2019-02-27T00:11:59.020Z,5.16
2019-02-27T00:12:58.952Z,5.21
2019-02-27T00:13:58.889Z,5.22
2019-02-27T00:14:58.836Z,5.18
2019-02-27T00:15:58.759Z,5.22
2019-02-27T00:16:58.698Z,5.19
2019-02-27T00:17:58.621Z,5.22
2019-02-27T00:18:59.330Z,5.27
2019-02-27T00:19:58.490Z,5.24
2019-02-27T00:20:58.423Z,5.22
2019-02-27T00:21:58.356Z,5.24
2019-02-27T00:22:58.294Z,5.24
2019-02-27T00:23:58.234Z,5.27
2019-02-27T00:24:58.157Z,5.25
2019-02-27T00:25:58.113Z,5.24
2019-02-27T00:26:58.023Z,5.24
2019-02-27T00:27:57.966Z,5.29
2019-02-27T00:28:57.887Z,5.22
2019-02-27T00:30:01.573Z,5.14
2019-02-27T00:30:57.778Z,5.19
2019-02-27T00:31:57.698Z,5.16
2019-02-27T00:32:57.633Z,5.21
2019-02-27T00:33:59.844Z,5.12
2019-02-27T00:34:57.508Z,5.06
2019-02-27T00:35:57.422Z,5.04
2019-02-27T00:36:57.358Z,5.07
2019-02-27T00:37:57.293Z,5.07
2019-02-27T00:38:57.904Z,5.06
2019-02-27T00:39:57.173Z,5.07
2019-02-27T00:40:57.096Z,4.91
2019-02-27T00:41:57.034Z,4.91
2019-02-27T00:42:56.956Z,5.01
2019-02-27T00:44:01.145Z,4.86
2019-02-27T00:44:56.828Z,4.94
2019-02-27T00:45:56.759Z,4.91
2019-02-27T00:46:56.699Z,4.91
2019-02-27T00:47:56.637Z,4.91
2019-02-27T00:48:58.993Z,4.91
2019-02-27T00:49:56.490Z,4.94
2019-02-27T00:50:56.424Z,4.89
2019-02-27T00:51:56.355Z,4.93
2019-02-27T00:52:56.292Z,4.88
2019-02-27T00:53:58.312Z,4.89
2019-02-27T00:54:56.189Z,4.85
2019-02-27T00:55:56.090Z,4.78
2019-02-27T00:56:56.025Z,4.83
2019-02-27T00:57:55.959Z,4.75
2019-02-27T00:58:59.905Z,4.82
2019-02-27T00:59:55.823Z,4.91
2019-02-27T01:00:55.756Z,4.79
2019-02-27T01:01:55.691Z,4.83
2019-02-27T01:02:55.625Z,4.93
2019-02-27T01:03:59.275Z,4.86
2019-02-27T01:04:55.507Z,4.91
2019-02-27T01:05:55.433Z,4.96
2019-02-27T01:06:55.367Z,4.96
2019-02-27T01:07:55.288Z,4.97
2019-02-27T01:08:55.224Z,5.00
2019-02-27T01:09:55.162Z,5.01
2019-02-27T01:10:55.101Z,4.96
2019-02-27T01:11:55.025Z,5.07
2019-02-27T01:12:57.818Z,5.00
2019-02-27T01:13:54.905Z,4.98
2019-02-27T01:14:54.821Z,4.97
2019-02-27T01:15:54.757Z,4.94
2019-02-27T01:16:54.690Z,4.96
2019-02-27T01:17:57.075Z,4.91
2019-02-27T01:18:54.555Z,4.77
2019-02-27T01:19:54.489Z,4.74
2019-02-27T01:20:54.430Z,4.77
2019-02-27T01:21:54.358Z,4.64
2019-02-27T01:22:54.291Z,4.54
2019-02-27T01:23:54.221Z,4.63
2019-02-27T01:24:54.153Z,4.56
2019-02-27T01:25:56.917Z,4.63
2019-02-27T01:26:54.023Z,4.61
2019-02-27T01:27:53.955Z,4.71
2019-02-27T01:28:53.910Z,4.60
2019-02-27T01:29:53.825Z,4.60
2019-02-27T01:30:53.769Z,4.61
2019-02-27T01:31:55.016Z,4.56
2019-02-27T01:32:53.659Z,4.56
2019-02-27T01:33:53.552Z,4.56
2019-02-27T01:34:53.487Z,4.54
2019-02-27T01:35:53.425Z,4.46
2019-02-27T01:36:57.590Z,4.42
2019-02-27T01:37:53.283Z,4.42
2019-02-27T01:38:53.226Z,4.42
2019-02-27T01:39:53.164Z,4.41
2019-02-27T01:40:53.084Z,4.39
2019-02-27T01:41:55.303Z,4.42
2019-02-27T01:42:52.957Z,4.31
2019-02-27T01:43:52.880Z,4.36
2019-02-27T01:44:52.812Z,4.36
2019-02-27T01:45:54.304Z,4.23
2019-02-27T01:46:54.541Z,4.28
2019-02-27T01:47:52.622Z,4.20
2019-02-27T01:48:52.555Z,4.24
2019-02-27T01:49:52.487Z,4.17
2019-02-27T01:50:54.974Z,4.09
2019-02-27T01:51:52.348Z,3.99
2019-02-27T01:52:52.281Z,3.96
2019-02-27T01:53:52.212Z,3.87
2019-02-27T01:54:52.162Z,3.84
2019-02-27T01:55:56.241Z,3.84
2019-02-27T01:56:52.040Z,3.81
2019-02-27T01:57:51.945Z,3.82
2019-02-27T01:58:51.877Z,3.84
2019-02-27T01:59:51.810Z,3.76
2019-02-27T02:00:56.018Z,3.85
2019-02-27T02:01:51.676Z,3.85
2019-02-27T02:02:51.608Z,3.85
2019-02-27T02:03:51.542Z,3.84
2019-02-27T02:04:53.738Z,3.84
2019-02-27T02:05:51.413Z,3.81
2019-02-27T02:06:51.339Z,3.90
2019-02-27T02:07:51.283Z,3.96
2019-02-27T02:08:51.204Z,3.94
2019-02-27T02:09:52.087Z,3.96
2019-02-27T02:10:51.071Z,4.00
2019-02-27T02:11:51.021Z,4.02
2019-02-27T02:12:50.945Z,4.03
2019-02-27T02:13:50.869Z,4.02
2019-02-27T02:14:54.075Z,4.02
2019-02-27T02:15:50.739Z,4.00
2019-02-27T02:16:50.671Z,4.09
2019-02-27T02:17:50.608Z,4.03
2019-02-27T02:18:50.556Z,3.91
2019-02-27T02:19:54.009Z,4.00
2019-02-27T02:20:50.400Z,3.96
2019-02-27T02:21:50.329Z,4.06
2019-02-27T02:22:50.262Z,4.16
2019-02-27T02:23:50.201Z,4.13
2019-02-27T02:24:51.958Z,4.21
2019-02-27T02:25:50.061Z,4.17
2019-02-27T02:26:49.996Z,4.21
2019-02-27T02:27:49.927Z,4.18
2019-02-27T02:28:49.861Z,4.21
2019-02-27T02:29:52.953Z,4.20
2019-02-27T02:30:49.725Z,4.24
2019-02-27T02:31:49.658Z,4.23
2019-02-27T02:32:52.494Z,4.24
2019-02-27T02:33:49.526Z,4.26
2019-02-27T02:34:49.464Z,4.17
2019-02-27T02:35:50.779Z,4.18
2019-02-27T02:36:49.333Z,4.16
2019-02-27T02:37:49.260Z,4.10
2019-02-27T02:38:49.188Z,4.08
2019-02-27T02:39:54.194Z,4.06
2019-02-27T02:40:49.051Z,4.09
2019-02-27T02:41:48.983Z,4.17
2019-02-27T02:42:48.917Z,4.08
2019-02-27T02:43:48.857Z,4.09
2019-02-27T02:44:48.786Z,4.05
2019-02-27T02:45:48.723Z,4.06
2019-02-27T02:46:48.653Z,4.06
2019-02-27T02:47:48.592Z,4.02
2019-02-27T02:48:48.515Z,4.06
2019-02-27T02:49:48.452Z,4.08
2019-02-27T02:50:54.038Z,4.03
2019-02-27T02:51:48.335Z,4.08
2019-02-27T02:52:48.264Z,4.09
2019-02-27T02:53:48.945Z,4.10
2019-02-27T02:54:48.121Z,4.16
2019-02-27T02:55:49.116Z,4.06
2019-02-27T02:56:47.981Z,4.03
2019-02-27T02:57:47.924Z,3.98
2019-02-27T02:58:48.922Z,3.90
2019-02-27T02:59:47.784Z,3.74
2019-02-27T03:00:47.708Z,3.85
2019-02-27T03:01:49.318Z,3.74
2019-02-27T03:02:47.575Z,3.67
2019-02-27T03:03:47.501Z,3.66
2019-02-27T03:04:48.370Z,3.69
2019-02-27T03:05:47.386Z,3.56
2019-02-27T03:06:47.315Z,3.55
2019-02-27T03:07:47.239Z,3.48
2019-02-27T03:08:47.172Z,3.49
2019-02-27T03:09:47.111Z,3.41
2019-02-27T03:10:47.033Z,3.48
2019-02-27T03:11:46.965Z,3.44
2019-02-27T03:12:46.903Z,3.44
2019-02-27T03:13:46.832Z,3.41
2019-02-27T03:14:53.318Z,3.45
2019-02-27T03:15:46.696Z,3.41
2019-02-27T03:16:46.639Z,3.48
2019-02-27T03:17:46.577Z,3.41
2019-02-27T03:18:46.492Z,3.41
2019-02-27T03:19:46.429Z,3.45
2019-02-27T03:20:51.806Z,3.46
2019-02-27T03:21:46.288Z,3.45
2019-02-27T03:22:46.227Z,3.41
2019-02-27T03:23:50.828Z,3.45
2019-02-27T03:24:46.091Z,3.41
2019-02-27T03:25:46.016Z,3.42
2019-02-27T03:26:51.665Z,3.33
2019-02-27T03:27:45.921Z,3.35
2019-02-27T03:28:45.819Z,3.22
2019-02-27T03:29:52.014Z,3.25
2019-02-27T03:30:45.685Z,3.09
2019-02-27T03:31:45.631Z,2.97
2019-02-27T03:32:45.547Z,2.89
2019-02-27T03:33:45.492Z,2.89
2019-02-27T03:34:50.483Z,2.96
2019-02-27T03:35:45.348Z,3.00
2019-02-27T03:36:45.276Z,2.99
2019-02-27T03:37:48.557Z,2.96
2019-02-27T03:38:45.166Z,3.00
2019-02-27T03:39:45.078Z,2.90
2019-02-27T03:40:47.998Z,2.86
2019-02-27T03:41:44.940Z,2.82
2019-02-27T03:42:44.870Z,2.68
2019-02-27T03:43:45.989Z,2.73
2019-02-27T03:44:44.736Z,2.66
2019-02-27T03:45:44.668Z,2.68
2019-02-27T03:46:44.614Z,2.69
2019-02-27T03:47:44.527Z,2.61
2019-02-27T03:48:44.483Z,2.60
2019-02-27T03:49:44.398Z,2.66
2019-02-27T03:50:49.425Z,2.68
2019-02-27T03:51:44.266Z,2.63
2019-02-27T03:52:44.202Z,2.51
2019-02-27T03:53:46.584Z,2.54
2019-02-27T03:54:44.069Z,2.55
2019-02-27T03:55:43.993Z,2.55
2019-02-27T03:56:44.789Z,2.58
2019-02-27T03:57:43.869Z,2.61
2019-02-27T03:58:43.784Z,2.60
2019-02-27T03:59:43.863Z,2.58
2019-02-27T04:00:43.654Z,2.66
2019-02-27T04:01:43.599Z,2.58
2019-02-27T04:02:43.523Z,2.58
2019-02-27T04:03:43.473Z,2.60
2019-02-27T04:04:43.380Z,2.55
2019-02-27T04:05:46.015Z,2.51
2019-02-27T04:06:43.243Z,2.53
2019-02-27T04:07:43.178Z,2.57
2019-02-27T04:08:44.741Z,2.43
2019-02-27T04:09:43.047Z,2.45
2019-02-27T04:10:42.974Z,2.53
2019-02-27T04:11:42.909Z,2.50
2019-02-27T04:12:42.837Z,2.55
2019-02-27T04:13:42.765Z,2.57
2019-02-27T04:14:42.702Z,2.50
2019-02-27T04:15:42.634Z,2.43
2019-02-27T04:16:42.566Z,2.53
2019-02-27T04:17:42.502Z,2.47
2019-02-27T04:18:42.433Z,2.53
2019-02-27T04:19:42.369Z,2.43
2019-02-27T04:20:42.293Z,2.55
2019-02-27T04:21:42.226Z,2.53
2019-02-27T04:22:42.155Z,2.54
2019-02-27T04:23:47.835Z,2.54
2019-02-27T04:24:42.018Z,2.54
2019-02-27T04:25:41.952Z,2.55
2019-02-27T04:26:42.666Z,2.54
2019-02-27T04:27:41.822Z,2.58
2019-02-27T04:28:41.748Z,2.63
2019-02-27T04:29:41.940Z,2.69
2019-02-27T04:30:41.613Z,2.58
2019-02-27T04:31:41.552Z,2.71
2019-02-27T04:32:47.659Z,2.75
2019-02-27T04:33:41.414Z,2.68
2019-02-27T04:34:41.358Z,2.69
2019-02-27T04:35:41.272Z,2.76
2019-02-27T04:36:41.204Z,2.82
2019-02-27T04:37:41.137Z,2.79
2019-02-27T04:38:41.087Z,2.86
2019-02-27T04:39:41.001Z,2.86
2019-02-27T04:40:41.721Z,2.94
2019-02-27T04:41:40.864Z,2.89
2019-02-27T04:42:40.799Z,2.96
2019-02-27T04:43:40.736Z,2.90
2019-02-27T04:44:40.671Z,2.94
2019-02-27T04:45:40.614Z,2.96
2019-02-27T04:46:40.532Z,2.99
2019-02-27T04:47:40.455Z,3.08
2019-02-27T04:48:40.390Z,2.96
2019-02-27T04:49:40.333Z,3.09
2019-02-27T04:50:41.736Z,3.08
2019-02-27T04:51:40.185Z,3.14
2019-02-27T04:52:40.117Z,3.07
2019-02-27T04:53:40.800Z,3.17
2019-02-27T04:54:41.645Z,3.17
2019-02-27T04:55:39.919Z,3.17
2019-02-27T04:56:39.845Z,3.15
2019-02-27T04:57:39.779Z,3.20
2019-02-27T04:58:42.818Z,3.14
2019-02-27T04:59:39.646Z,3.25
2019-02-27T05:00:39.605Z,3.18
2019-02-27T05:01:39.505Z,3.17
2019-02-27T05:02:39.443Z,3.11
2019-02-27T05:03:39.374Z,3.08
2019-02-27T05:04:39.309Z,2.96
2019-02-27T05:05:41.437Z,2.99
2019-02-27T05:06:39.169Z,2.99
2019-02-27T05:07:39.099Z,3.02
2019-02-27T05:08:39.040Z,2.96
2019-02-27T05:09:38.971Z,3.02
2019-02-27T05:10:40.614Z,3.00
2019-02-27T05:11:38.834Z,3.08
2019-02-27T05:12:38.760Z,2.99
2019-02-27T05:13:38.697Z,2.89
2019-02-27T05:14:38.625Z,3.09
2019-02-27T05:15:39.486Z,2.96
2019-02-27T05:16:38.563Z,3.12
2019-02-27T05:17:38.423Z,3.12
2019-02-27T05:18:38.351Z,3.09
2019-02-27T05:19:38.291Z,3.08
2019-02-27T05:20:38.214Z,3.09
2019-02-27T05:21:38.149Z,3.09
2019-02-27T05:22:38.082Z,3.04
2019-02-27T05:23:38.013Z,3.08
2019-02-27T05:24:40.829Z,2.94
2019-02-27T05:25:37.887Z,2.94
2019-02-27T05:26:37.821Z,2.91
2019-02-27T05:27:37.740Z,2.86
2019-02-27T05:28:37.675Z,2.79
2019-02-27T05:29:38.145Z,2.81
2019-02-27T05:30:37.546Z,2.82
2019-02-27T05:31:37.466Z,2.79
2019-02-27T05:32:37.400Z,2.69
2019-02-27T05:33:39.715Z,2.65
2019-02-27T05:34:37.267Z,2.78
2019-02-27T05:35:37.197Z,2.66
2019-02-27T05:36:37.130Z,2.75
2019-02-27T05:37:39.244Z,2.78
2019-02-27T05:38:36.995Z,2.81
2019-02-27T05:39:36.929Z,2.78
2019-02-27T05:40:36.858Z,2.87
2019-02-27T05:41:36.794Z,2.82
2019-02-27T05:42:38.844Z,2.84
2019-02-27T05:43:36.653Z,2.82
2019-02-27T05:44:36.588Z,2.89
2019-02-27T05:45:36.518Z,2.90
2019-02-27T05:46:38.409Z,2.82
2019-02-27T05:47:36.383Z,2.86
2019-02-27T05:48:36.316Z,2.86
2019-02-27T05:49:36.261Z,2.87
2019-02-27T05:50:36.185Z,2.81
2019-02-27T05:51:36.120Z,2.84
2019-02-27T05:52:36.062Z,2.87
2019-02-27T05:53:35.974Z,2.81
2019-02-27T05:54:35.909Z,2.81
2019-02-27T05:55:39.031Z,2.86
2019-02-27T05:56:35.771Z,2.89
2019-02-27T05:57:35.698Z,2.97
2019-02-27T05:58:35.636Z,2.93
2019-02-27T05:59:35.566Z,2.90
2019-02-27T06:00:35.496Z,2.97
2019-02-27T06:01:37.864Z,2.90
2019-02-27T06:02:35.363Z,2.86
2019-02-27T06:03:35.296Z,2.81
2019-02-27T06:04:35.239Z,2.78
2019-02-27T06:05:36.061Z,2.75
2019-02-27T06:06:35.097Z,2.71
2019-02-27T06:07:35.035Z,2.72
2019-02-27T06:08:37.937Z,2.73
2019-02-27T06:09:34.901Z,2.61
2019-02-27T06:10:34.819Z,2.75
2019-02-27T06:11:34.759Z,2.76
2019-02-27T06:12:34.679Z,2.87
2019-02-27T06:13:34.615Z,2.79
2019-02-27T06:14:34.552Z,2.99
2019-02-27T06:15:34.479Z,3.02
2019-02-27T06:16:37.054Z,3.00
2019-02-27T06:17:43.146Z,2.97
2019-02-27T06:18:34.281Z,2.99
2019-02-27T06:19:34.368Z,2.96
2019-02-27T06:20:34.140Z,3.00
2019-02-27T06:21:34.073Z,3.17
2019-02-27T06:22:34.014Z,3.09
2019-02-27T06:23:35.383Z,3.07
2019-02-27T06:24:33.869Z,3.02
2019-02-27T06:25:33.801Z,2.99
2019-02-27T06:26:33.732Z,2.96
2019-02-27T06:27:33.724Z,2.96
2019-02-27T06:28:33.596Z,2.99
2019-02-27T06:29:33.527Z,2.94
2019-02-27T06:30:33.460Z,3.04
2019-02-27T06:31:36.861Z,3.09
2019-02-27T06:32:33.323Z,3.08
2019-02-27T06:33:33.264Z,3.14
2019-02-27T06:34:33.187Z,3.09
2019-02-27T06:35:34.188Z,3.17
2019-02-27T06:36:33.053Z,3.23
2019-02-27T06:37:32.987Z,3.23
2019-02-27T06:38:32.914Z,3.20
2019-02-27T06:39:34.466Z,3.22
2019-02-27T06:40:32.780Z,3.29
2019-02-27T06:41:32.711Z,3.27
2019-02-27T06:42:32.675Z,3.27
2019-02-27T06:43:32.580Z,3.37
2019-02-27T06:44:32.511Z,3.33
2019-02-27T06:45:32.441Z,3.30
2019-02-27T06:46:32.375Z,3.27
2019-02-27T06:47:33.053Z,3.32
2019-02-27T06:48:32.261Z,3.42
2019-02-27T06:49:32.170Z,3.44
2019-02-27T06:50:32.099Z,3.44
2019-02-27T06:51:33.406Z,3.51
2019-02-27T06:52:31.967Z,3.49
2019-02-27T06:53:31.899Z,3.45
2019-02-27T06:54:31.832Z,3.42
2019-02-27T06:55:33.750Z,3.51
2019-02-27T06:56:31.696Z,3.56
2019-02-27T06:57:31.646Z,3.66
2019-02-27T06:58:31.561Z,3.66
2019-02-27T06:59:31.494Z,3.67
2019-02-27T07:00:35.886Z,3.69
2019-02-27T07:01:31.356Z,3.76
2019-02-27T07:02:31.293Z,3.87
2019-02-27T07:03:32.980Z,3.76
2019-02-27T07:04:31.151Z,3.82
2019-02-27T07:05:31.086Z,3.87
2019-02-27T07:06:31.020Z,3.91
2019-02-27T07:07:31.293Z,3.94
2019-02-27T07:08:30.902Z,3.90
2019-02-27T07:09:30.816Z,3.76
2019-02-27T07:10:30.761Z,3.81
2019-02-27T07:11:30.677Z,3.88
2019-02-27T07:12:30.613Z,3.88
2019-02-27T07:13:30.562Z,3.90
2019-02-27T07:14:30.486Z,3.90
2019-02-27T07:15:30.411Z,3.90
2019-02-27T07:16:30.348Z,3.91
2019-02-27T07:17:31.816Z,4.02
2019-02-27T07:18:30.216Z,4.02
2019-02-27T07:19:30.148Z,4.03
2019-02-27T07:20:30.079Z,4.09
2019-02-27T07:21:32.848Z,4.06
2019-02-27T07:22:29.939Z,4.17
2019-02-27T07:23:29.875Z,4.18
2019-02-27T07:24:30.545Z,4.21
2019-02-27T07:25:29.738Z,4.34
2019-02-27T07:26:29.663Z,4.30
2019-02-27T07:27:31.300Z,4.36
2019-02-27T07:28:29.538Z,4.39
2019-02-27T07:29:29.468Z,4.46
2019-02-27T07:30:29.405Z,4.45
2019-02-27T07:31:29.342Z,4.49
2019-02-27T07:32:31.428Z,4.56
2019-02-27T07:33:29.197Z,4.45
2019-02-27T07:34:29.130Z,4.60
2019-02-27T07:35:29.321Z,4.57
2019-02-27T07:36:28.995Z,4.54
2019-02-27T07:37:28.923Z,4.64
2019-02-27T07:38:28.863Z,4.74
2019-02-27T07:39:32.619Z,4.74
2019-02-27T07:40:28.724Z,4.82
2019-02-27T07:41:28.661Z,4.93
2019-02-27T07:42:31.926Z,4.94
2019-02-27T07:43:28.528Z,5.01
2019-02-27T07:44:28.456Z,5.11
2019-02-27T07:45:28.394Z,5.11
2019-02-27T07:46:28.323Z,5.22
2019-02-27T07:47:28.400Z,5.24
2019-02-27T07:48:28.188Z,5.33
2019-02-27T07:49:28.355Z,5.32
2019-02-27T07:50:28.068Z,5.39
2019-02-27T07:51:27.985Z,5.44
2019-02-27T07:52:32.250Z,5.50
2019-02-27T07:53:27.854Z,5.55
2019-02-27T07:54:29.037Z,5.66
2019-02-27T07:55:28.522Z,5.65
2019-02-27T07:56:27.655Z,5.65
2019-02-27T07:57:27.587Z,5.77
2019-02-27T07:58:29.295Z,5.85
2019-02-27T07:59:27.457Z,5.80
2019-02-27T08:00:27.390Z,5.79
2019-02-27T08:01:27.321Z,5.79
2019-02-27T08:02:27.255Z,5.85
2019-02-27T08:03:27.185Z,5.95
2019-02-27T08:04:27.120Z,5.94
2019-02-27T08:05:29.033Z,6.08
2019-02-27T08:06:26.996Z,6.12
2019-02-27T08:07:26.940Z,6.15
2019-02-27T08:08:26.865Z,6.11
2019-02-27T08:09:29.943Z,6.18
2019-02-27T08:10:26.720Z,6.25
2019-02-27T08:11:26.655Z,6.32
2019-02-27T08:12:26.591Z,6.32
2019-02-27T08:13:27.001Z,6.43
2019-02-27T08:14:26.463Z,6.52
2019-02-27T08:15:26.413Z,6.53
2019-02-27T08:16:26.322Z,6.46
2019-02-27T08:17:26.428Z,6.60
2019-02-27T08:18:30.139Z,6.64
2019-02-27T08:19:26.120Z,6.63
2019-02-27T08:20:26.069Z,6.67
2019-02-27T08:21:25.991Z,6.74
2019-02-27T08:22:25.928Z,6.81
2019-02-27T08:23:25.859Z,6.81
2019-02-27T08:24:25.797Z,6.82
2019-02-27T08:25:25.729Z,6.91
2019-02-27T08:26:25.662Z,6.97
2019-02-27T08:27:25.605Z,7.00
2019-02-27T08:28:25.531Z,7.04
2019-02-27T08:29:25.478Z,7.18
2019-02-27T08:30:25.398Z,7.18
2019-02-27T08:31:27.986Z,7.33
2019-02-27T08:32:25.265Z,7.39
2019-02-27T08:33:25.200Z,7.44
2019-02-27T08:34:25.195Z,7.54
2019-02-27T08:35:25.077Z,7.47
2019-02-27T08:36:25.016Z,7.52
2019-02-27T08:37:24.935Z,7.68
2019-02-27T08:38:24.870Z,7.62
2019-02-27T08:39:24.803Z,7.61
2019-02-27T08:40:25.348Z,7.64
2019-02-27T08:41:24.681Z,7.71
2019-02-27T08:42:24.607Z,7.76
2019-02-27T08:43:24.538Z,7.76
2019-02-27T08:44:24.472Z,7.76
2019-02-27T08:45:27.079Z,7.86
2019-02-27T08:46:24.343Z,7.98
2019-02-27T08:47:24.281Z,8.01
2019-02-27T08:48:24.214Z,7.99
2019-02-27T08:49:24.942Z,8.09
2019-02-27T08:50:24.086Z,8.10
2019-02-27T08:51:24.011Z,8.10
2019-02-27T08:52:23.950Z,8.10
2019-02-27T08:53:26.809Z,8.14
2019-02-27T08:54:23.818Z,8.13
2019-02-27T08:55:23.754Z,8.14
2019-02-27T08:56:23.687Z,8.26
2019-02-27T08:57:23.629Z,8.34
2019-02-27T08:58:23.550Z,8.46
2019-02-27T08:59:23.491Z,8.46
2019-02-27T09:00:23.530Z,8.55
2019-02-27T09:01:23.361Z,8.47
2019-02-27T09:02:24.196Z,8.52
2019-02-27T09:03:23.230Z,8.53
2019-02-27T09:04:23.169Z,8.47
2019-02-27T09:05:23.108Z,8.41
2019-02-27T09:06:27.307Z,8.46
2019-02-27T09:07:22.974Z,8.55
2019-02-27T09:08:22.900Z,8.56
2019-02-27T09:09:22.838Z,8.68
2019-02-27T09:10:23.181Z,8.65
2019-02-27T09:11:22.705Z,8.71
2019-02-27T09:12:22.642Z,8.75
2019-02-27T09:13:22.576Z,8.80
2019-02-27T09:14:22.509Z,8.88
2019-02-27T09:15:22.442Z,8.88
2019-02-27T09:16:25.754Z,9.03
2019-02-27T09:17:24.991Z,9.09
2019-02-27T09:18:22.966Z,9.19
2019-02-27T09:19:22.185Z,9.19
2019-02-27T09:20:22.122Z,9.36
2019-02-27T09:21:22.055Z,9.37
2019-02-27T09:22:21.992Z,9.47
2019-02-27T09:23:21.926Z,9.48
2019-02-27T09:24:21.857Z,9.63
2019-02-27T09:25:24.602Z,9.98
2019-02-27T09:26:21.739Z,10.08
2019-02-27T09:27:21.669Z,9.99
2019-02-27T09:28:21.601Z,10.05
2019-02-27T09:29:21.538Z,10.10
2019-02-27T09:30:21.472Z,10.02
2019-02-27T09:31:21.406Z,9.99
2019-02-27T09:32:21.348Z,10.02
2019-02-27T09:33:21.306Z,9.94
2019-02-27T09:34:21.259Z,9.87
2019-02-27T09:35:21.156Z,9.87
2019-02-27T09:36:21.085Z,9.84
2019-02-27T09:37:21.027Z,9.88
2019-02-27T09:38:24.061Z,9.87
2019-02-27T09:39:22.195Z,9.84
2019-02-27T09:40:20.824Z,9.99
2019-02-27T09:41:20.763Z,10.09
2019-02-27T09:42:20.703Z,10.20
2019-02-27T09:43:20.640Z,10.49
2019-02-27T09:44:20.569Z,10.90
2019-02-27T09:45:20.508Z,11.08
2019-02-27T09:46:20.439Z,11.01
2019-02-27T09:47:23.086Z,11.03
2019-02-27T09:48:20.311Z,11.09
2019-02-27T09:49:20.251Z,11.01
2019-02-27T09:50:20.183Z,11.05
2019-02-27T09:51:22.225Z,11.01
2019-02-27T09:52:20.055Z,11.05
2019-02-27T09:53:19.988Z,11.16
2019-02-27T09:54:19.925Z,11.36
2019-02-27T09:55:20.304Z,11.49
2019-02-27T09:56:19.798Z,11.52
2019-02-27T09:57:19.739Z,11.62
2019-02-27T09:58:19.676Z,11.70
2019-02-27T09:59:20.356Z,11.66
2019-02-27T10:00:19.538Z,11.62
2019-02-27T10:01:19.479Z,11.52
2019-02-27T10:02:19.412Z,11.49
2019-02-27T10:03:21.262Z,11.48
2019-02-27T10:04:19.284Z,11.48
2019-02-27T10:05:19.221Z,11.41
2019-02-27T10:06:19.157Z,11.51
2019-02-27T10:07:19.089Z,11.62
2019-02-27T10:08:19.038Z,11.80
2019-02-27T10:09:18.968Z,11.97
2019-02-27T10:10:18.901Z,12.03
2019-02-27T10:11:20.723Z,12.15
2019-02-27T10:12:18.773Z,12.28
2019-02-27T10:13:18.722Z,12.26
2019-02-27T10:14:18.646Z,12.26
2019-02-27T10:15:18.586Z,12.15
2019-02-27T10:16:18.518Z,12.17
2019-02-27T10:17:18.458Z,12.05
2019-02-27T10:18:20.120Z,12.05
2019-02-27T10:19:18.330Z,11.88
2019-02-27T10:20:18.264Z,11.89
2019-02-27T10:21:18.205Z,11.89
2019-02-27T10:22:20.326Z,11.96
2019-02-27T10:23:18.079Z,12.00
2019-02-27T10:24:18.005Z,12.03
2019-02-27T10:25:17.948Z,11.99
2019-02-27T10:26:19.364Z,12.03
2019-02-27T10:27:17.818Z,12.03
2019-02-27T10:28:17.758Z,12.17
2019-02-27T10:29:19.025Z,12.15
2019-02-27T10:30:17.628Z,12.26
2019-02-27T10:31:17.572Z,12.25
2019-02-27T10:32:17.502Z,12.25
2019-02-27T10:33:17.437Z,12.28
2019-02-27T10:34:17.725Z,12.29
2019-02-27T10:35:17.315Z,12.30
2019-02-27T10:36:17.249Z,12.47
2019-02-27T10:37:18.879Z,12.63
2019-02-27T10:38:17.123Z,12.77
2019-02-27T10:39:17.060Z,12.63
2019-02-27T10:40:16.997Z,12.59
2019-02-27T10:41:16.933Z,12.58
2019-02-27T10:42:16.870Z,12.51
2019-02-27T10:43:16.801Z,12.51
2019-02-27T10:44:16.742Z,12.54
2019-02-27T10:45:16.687Z,12.69
2019-02-27T10:46:16.614Z,12.87
2019-02-27T10:47:16.557Z,12.98
2019-02-27T10:48:16.489Z,13.04
2019-02-27T10:49:16.429Z,13.19
2019-02-27T10:50:16.367Z,13.16
2019-02-27T10:51:16.302Z,13.30
2019-02-27T10:52:16.237Z,13.40
2019-02-27T10:53:16.176Z,13.40
2019-02-27T10:54:16.114Z,13.36
2019-02-27T10:55:16.053Z,13.36
2019-02-27T10:56:15.990Z,13.36
2019-02-27T10:57:15.925Z,13.47
2019-02-27T10:58:15.869Z,13.51
2019-02-27T10:59:15.796Z,13.63
2019-02-27T11:00:15.740Z,13.53
2019-02-27T11:01:15.678Z,13.53
2019-02-27T11:02:15.604Z,13.58
2019-02-27T11:03:15.552Z,13.64
2019-02-27T11:04:15.493Z,13.73
2019-02-27T11:05:17.843Z,13.68
2019-02-27T11:06:15.354Z,13.68
2019-02-27T11:07:15.785Z,13.72
2019-02-27T11:08:15.231Z,13.72
2019-02-27T11:09:15.179Z,13.83
2019-02-27T11:10:15.124Z,13.96
2019-02-27T11:11:16.420Z,14.08
2019-02-27T11:12:14.983Z,14.05
2019-02-27T11:13:14.916Z,14.11
2019-02-27T11:14:14.856Z,14.08
2019-02-27T11:15:14.796Z,14.04
2019-02-27T11:16:15.493Z,14.13
2019-02-27T11:17:14.671Z,14.09
2019-02-27T11:18:14.609Z,14.04
2019-02-27T11:19:16.651Z,14.04
2019-02-27T11:20:14.484Z,14.03
2019-02-27T11:21:14.428Z,14.03
2019-02-27T11:22:14.356Z,14.03
2019-02-27T11:23:14.290Z,14.00
2019-02-27T11:24:14.553Z,14.09
2019-02-27T11:25:14.202Z,14.05
2019-02-27T11:26:14.111Z,14.08
2019-02-27T11:27:14.038Z,14.05
2019-02-27T11:28:13.982Z,14.04
2019-02-27T11:29:13.926Z,14.05
2019-02-27T11:30:13.852Z,14.04
2019-02-27T11:31:15.506Z,14.03
2019-02-27T11:32:13.746Z,14.01
2019-02-27T11:33:25.038Z,14.05
2019-02-27T11:34:13.607Z,14.18
2019-02-27T11:35:13.543Z,14.23
2019-02-27T11:36:13.491Z,14.26
2019-02-27T11:37:13.992Z,14.27
2019-02-27T11:38:13.364Z,14.19
2019-02-27T11:39:13.297Z,14.15
2019-02-27T11:40:13.233Z,14.18
2019-02-27T11:41:15.362Z,14.23
2019-02-27T11:42:13.110Z,14.22
2019-02-27T11:43:13.049Z,14.26
2019-02-27T11:44:14.313Z,14.16
2019-02-27T11:45:12.931Z,14.21
2019-02-27T11:46:12.857Z,14.19
2019-02-27T11:47:12.798Z,14.23
2019-02-27T11:48:12.742Z,14.26
2019-02-27T11:49:12.674Z,14.30
2019-02-27T11:50:14.690Z,14.31
2019-02-27T11:51:13.919Z,14.44
2019-02-27T11:52:12.505Z,14.44
2019-02-27T11:53:12.422Z,14.31
2019-02-27T11:54:14.508Z,14.41
2019-02-27T11:55:14.794Z,14.37
2019-02-27T11:56:12.239Z,14.55
2019-02-27T11:57:12.177Z,14.44
2019-02-27T11:58:12.121Z,14.53
2019-02-27T11:59:12.969Z,14.53
2019-02-27T12:00:13.650Z,14.56
2019-02-27T12:01:12.253Z,14.53
2019-02-27T12:02:11.872Z,14.52
2019-02-27T12:03:12.003Z,14.55
2019-02-27T12:04:11.752Z,14.64
2019-02-27T12:05:11.684Z,14.86
2019-02-27T12:06:11.628Z,14.90
2019-02-27T12:07:12.282Z,14.97
2019-02-27T12:08:11.510Z,15.04
2019-02-27T12:09:11.443Z,15.08
2019-02-27T12:10:11.368Z,15.10
2019-02-27T12:11:13.208Z,15.15
2019-02-27T12:12:11.253Z,15.19
2019-02-27T12:13:11.192Z,15.10
2019-02-27T12:14:11.121Z,15.11
2019-02-27T12:15:11.075Z,15.03
2019-02-27T12:16:10.997Z,15.05
2019-02-27T12:17:10.937Z,15.08
2019-02-27T12:18:10.884Z,15.01
2019-02-27T12:19:10.813Z,14.93
2019-02-27T12:20:10.755Z,15.03
2019-02-27T12:21:10.698Z,14.96
2019-02-27T12:22:10.625Z,15.01
2019-02-27T12:23:10.833Z,15.12
2019-02-27T12:24:10.502Z,15.07
2019-02-27T12:25:10.442Z,14.97
2019-02-27T12:26:10.381Z,14.90
2019-02-27T12:27:20.963Z,14.92
2019-02-27T12:28:10.257Z,14.87
2019-02-27T12:29:10.195Z,14.82
2019-02-27T12:30:10.131Z,14.78
2019-02-27T12:31:10.961Z,14.74
2019-02-27T12:32:10.008Z,14.78
2019-02-27T12:33:09.946Z,14.82
2019-02-27T12:34:09.885Z,14.79
2019-02-27T12:35:10.882Z,14.78
2019-02-27T12:36:09.761Z,14.90
2019-02-27T12:37:23.659Z,14.95
2019-02-27T12:38:11.393Z,15.05
2019-02-27T12:39:09.577Z,15.10
2019-02-27T12:40:09.513Z,15.15
2019-02-27T12:41:09.451Z,15.23
2019-02-27T12:42:09.387Z,15.32
2019-02-27T12:43:09.328Z,15.43
2019-02-27T12:44:09.269Z,15.43
2019-02-27T12:45:09.204Z,15.35
2019-02-27T12:46:09.766Z,15.40
2019-02-27T12:47:09.084Z,15.52
2019-02-27T12:48:09.019Z,15.56
2019-02-27T12:49:08.956Z,15.51
2019-02-27T12:50:08.901Z,15.54
2019-02-27T12:51:08.840Z,15.54
2019-02-27T12:52:09.034Z,15.52
2019-02-27T12:53:08.717Z,15.54
2019-02-27T12:54:08.657Z,15.47
2019-02-27T12:55:08.591Z,15.45
2019-02-27T12:56:08.558Z,15.30
2019-02-27T12:57:08.465Z,15.32
2019-02-27T12:58:08.398Z,15.44
2019-02-27T12:59:08.360Z,15.41
2019-02-27T13:00:08.516Z,15.41
2019-02-27T13:01:08.226Z,15.41
2019-02-27T13:02:10.263Z,15.52
2019-02-27T13:03:09.349Z,15.51
2019-02-27T13:04:08.046Z,15.60
2019-02-27T13:05:07.990Z,15.70
2019-02-27T13:06:07.919Z,15.68
2019-02-27T13:07:10.387Z,15.65
2019-02-27T13:08:07.782Z,15.68
2019-02-27T13:09:07.722Z,15.52
2019-02-27T13:10:07.664Z,15.65
2019-02-27T13:11:07.962Z,15.77